Time,TemperatureF,DewpointF,PressureIn,WindDirection,WindDirectionDegrees,WindSpeedMPH,WindSpeedGustMPH,Humidity,HourlyPrecipIn,Conditions,Clouds,dailyrainin,SoftwareType,DateUTC
2013-01-21 00:15:00,28.3,11.0,30.05,North,1,0.0,12.0,48,0.00,,,0.00,weatherlink.com 1.10,2013-01-21 05:15:00,
2013-01-21 00:30:00,28.1,11.0,30.05,NW,319,1.0,8.0,48,0.00,,,0.00,weatherlink.com 1.10,2013-01-21 05:30:00,
2013-01-21 00:45:00,27.8,11.0,30.05,North,4,2.0,3.0,49,0.00,,,0.00,weatherlink.com 1.10,2013-01-21 05:45:00,
2013-01-21 01:00:00,27.6,11.0,30.06,North,1,0.0,4.0,50,0.00,,,0.00,weatherlink.com 1.10,2013-01-21 06:00:00,
2013-01-21 01:15:00,27.4,11.0,30.06,WSW,243,1.0,8.0,50,0.00,,,0.00,weatherlink.com 1.10,2013-01-21 06:15:00,
2013-01-21 01:30:00,27.2,11.0,30.07,NW,322,0.0,4.0,51,0.00,,,0.00,weatherlink.com 1.10,2013-01-21 06:30:00,
2013-01-21 01:45:00,26.8,11.0,30.08,North,350,0.0,4.0,51,0.00,,,0.00,weatherlink.com 1.10,2013-01-21 06:45:00,
2013-01-21 02:00:00,26.6,10.0,30.08,North,350,0.0,5.0,50,0.00,,,0.00,weatherlink.com 1.10,2013-01-21 07:00:00,
2013-01-21 02:15:00,26.4,10.0,30.09,SSW,193,0.0,2.0,50,0.00,,,0.00,weatherlink.com 1.10,2013-01-21 07:15:00,
2013-01-21 02:30:00,26.3,9.0,30.09,NNE,18,0.0,5.0,48,0.00,,,0.00,weatherlink.com 1.10,2013-01-21 07:30:00,
2013-01-21 02:45:00,26.1,9.0,30.08,West,278,0.0,3.0,49,0.00,,,0.00,weatherlink.com 1.10,2013-01-21 07:45:00,
2013-01-21 03:00:00,25.8,8.0,30.09,South,170,0.0,1.0,48,0.00,,,0.00,weatherlink.com 1.10,2013-01-21 08:00:00,
2013-01-21 03:15:00,25.5,9.0,30.09,South,185,0.0,2.0,50,0.00,,,0.00,weatherlink.com 1.10,2013-01-21 08:15:00,
2013-01-21 03:30:00,25.1,10.0,30.09,WSW,256,0.0,0.0,52,0.00,,,0.00,weatherlink.com 1.10,2013-01-21 08:30:00,
2013-01-21 03:45:00,24.6,10.0,30.09,WSW,256,0.0,1.0,53,0.00,,,0.00,weatherlink.com 1.10,2013-01-21 08:45:00,
2013-01-21 04:00:00,24.0,10.0,30.09,WSW,256,0.0,0.0,55,0.00,,,0.00,weatherlink.com 1.10,2013-01-21 09:00:00,
2013-01-21 04:15:00,23.6,10.0,30.08,SW,224,0.0,0.0,56,0.00,,,0.00,weatherlink.com 1.10,2013-01-21 09:15:00,
2013-01-21 04:30:00,23.6,10.0,30.08,SW,224,0.0,0.0,56,0.00,,,0.00,weatherlink.com 1.10,2013-01-21 09:30:00,
2013-01-21 04:45:00,22.9,10.0,30.09,SW,224,0.0,0.0,59,0.00,,,0.00,weatherlink.com 1.10,2013-01-21 09:45:00,
2013-01-21 05:00:00,22.3,11.0,30.09,SW,224,0.0,0.0,61,0.00,,,0.00,weatherlink.com 1.10,2013-01-21 10:00:00,
2013-01-21 05:15:00,22.1,11.0,30.09,SW,229,0.0,1.0,63,0.00,,,0.00,weatherlink.com 1.10,2013-01-21 10:15:00,
2013-01-21 05:30:00,21.5,12.0,30.08,SW,229,0.0,0.0,66,0.00,,,0.00,weatherlink.com 1.10,2013-01-21 10:30:00,
2013-01-21 05:46:00,21.2,12.0,30.09,SW,229,0.0,0.0,68,0.00,,,0.00,weatherlink.com 1.10,2013-01-21 10:46:00,
2013-01-21 06:01:00,21.7,12.0,30.08,SW,229,0.0,1.0,67,0.00,,,0.00,weatherlink.com 1.10,2013-01-21 11:01:00,
2013-01-21 06:16:00,22.8,12.0,30.09,WNW,287,0.0,1.0,63,0.00,,,0.00,weatherlink.com 1.10,2013-01-21 11:16:00,
2013-01-21 06:31:00,23.1,11.0,30.09,WNW,286,0.0,1.0,61,0.00,,,0.00,weatherlink.com 1.10,2013-01-21 11:31:00,
2013-01-21 06:46:00,23.3,11.0,30.09,WNW,285,0.0,0.0,60,0.00,,,0.00,weatherlink.com 1.10,2013-01-21 11:46:00,
2013-01-21 07:01:00,23.1,11.0,30.09,West,277,0.0,0.0,61,0.00,,,0.00,weatherlink.com 1.10,2013-01-21 12:01:00,
2013-01-21 07:16:00,22.8,12.0,30.10,West,277,0.0,0.0,63,0.00,,,0.00,weatherlink.com 1.10,2013-01-21 12:16:00,
2013-01-21 07:31:00,22.3,12.0,30.09,West,277,0.0,0.0,64,0.00,,,0.00,weatherlink.com 1.10,2013-01-21 12:31:00,
2013-01-21 07:46:00,21.9,12.0,30.09,West,277,0.0,0.0,66,0.00,,,0.00,weatherlink.com 1.10,2013-01-21 12:46:00,
2013-01-21 08:01:00,22.6,13.0,30.09,West,277,0.0,0.0,67,0.00,,,0.00,weatherlink.com 1.10,2013-01-21 13:01:00,
2013-01-21 08:16:00,23.8,12.0,30.10,WSW,239,1.0,1.0,62,0.00,,,0.00,weatherlink.com 1.10,2013-01-21 13:16:00,
2013-01-21 08:31:00,24.4,13.0,30.10,WSW,238,1.0,1.0,61,0.00,,,0.00,weatherlink.com 1.10,2013-01-21 13:31:00,
2013-01-21 08:46:00,25.0,12.0,30.10,West,270,0.0,2.0,59,0.00,,,0.00,weatherlink.com 1.10,2013-01-21 13:46:00,
2013-01-21 09:01:00,25.6,12.0,30.10,SSE,158,0.0,1.0,56,0.00,,,0.00,weatherlink.com 1.10,2013-01-21 14:01:00,
2013-01-21 09:16:00,25.9,12.0,30.10,West,276,0.0,2.0,55,0.00,,,0.00,weatherlink.com 1.10,2013-01-21 14:16:00,
2013-01-21 09:31:00,26.3,12.0,30.10,West,270,0.0,2.0,54,0.00,,,0.00,weatherlink.com 1.10,2013-01-21 14:31:00,
2013-01-21 09:46:00,26.6,11.0,30.10,WSW,256,0.0,2.0,53,0.00,,,0.00,weatherlink.com 1.10,2013-01-21 14:46:00,
2013-01-21 10:01:00,26.9,11.0,30.09,WNW,283,2.0,2.0,52,0.00,,,0.00,weatherlink.com 1.10,2013-01-21 15:01:00,
2013-01-21 10:16:00,27.1,11.0,30.09,West,259,1.0,2.0,52,0.00,,,0.00,weatherlink.com 1.10,2013-01-21 15:16:00,
2013-01-21 10:31:00,27.4,11.0,30.08,WNW,286,0.0,2.0,51,0.00,,,0.00,weatherlink.com 1.10,2013-01-21 15:31:00,
2013-01-21 10:46:00,27.7,11.0,30.07,WNW,302,2.0,3.0,50,0.00,,,0.00,weatherlink.com 1.10,2013-01-21 15:46:00,
2013-01-21 11:01:00,28.2,11.0,30.07,North,8,0.0,2.0,48,0.00,,,0.00,weatherlink.com 1.10,2013-01-21 16:01:00,
2013-01-21 11:16:00,28.4,10.0,30.05,South,187,0.0,3.0,47,0.00,,,0.00,weatherlink.com 1.10,2013-01-21 16:16:00,
2013-01-21 11:31:00,28.7,11.0,30.04,West,267,2.0,3.0,48,0.00,,,0.00,weatherlink.com 1.10,2013-01-21 16:31:00,
2013-01-21 11:46:00,28.8,11.0,30.03,North,11,2.0,5.0,47,0.00,,,0.00,weatherlink.com 1.10,2013-01-21 16:46:00,
2013-01-21 12:01:00,29.3,11.0,30.02,SW,236,1.0,4.0,46,0.00,,,0.00,weatherlink.com 1.10,2013-01-21 17:01:00,
2013-01-21 12:16:00,29.7,11.0,30.01,SSE,160,2.0,3.0,46,0.00,,,0.00,weatherlink.com 1.10,2013-01-21 17:16:00,
2013-01-21 12:31:00,29.8,11.0,30.00,West,272,2.0,3.0,45,0.00,,,0.00,weatherlink.com 1.10,2013-01-21 17:31:00,
2013-01-21 12:46:00,30.1,11.0,29.99,SW,226,0.0,2.0,45,0.00,,,0.00,weatherlink.com 1.10,2013-01-21 17:46:00,
2013-01-21 13:01:00,30.1,11.0,29.98,NW,307,4.0,5.0,45,0.00,,,0.00,weatherlink.com 1.10,2013-01-21 18:01:00,
2013-01-21 13:16:00,30.5,11.0,29.98,WNW,302,2.0,6.0,45,0.00,,,0.00,weatherlink.com 1.10,2013-01-21 18:16:00,
2013-01-21 13:31:00,30.4,11.0,29.98,West,259,1.0,5.0,45,0.00,,,0.00,weatherlink.com 1.10,2013-01-21 18:31:00,
2013-01-21 13:46:00,30.6,12.0,29.97,WNW,291,1.0,5.0,46,0.00,,,0.00,weatherlink.com 1.10,2013-01-21 18:46:00,
2013-01-21 14:01:00,30.6,12.0,29.96,West,276,2.0,4.0,46,0.00,,,0.00,weatherlink.com 1.10,2013-01-21 19:01:00,
2013-01-21 14:16:00,30.5,13.0,29.96,West,271,3.0,3.0,48,0.00,,,0.00,weatherlink.com 1.10,2013-01-21 19:16:00,
2013-01-21 14:31:00,30.5,13.0,29.95,SE,144,1.0,3.0,48,0.00,,,0.00,weatherlink.com 1.10,2013-01-21 19:31:00,
2013-01-21 14:46:00,30.5,13.0,29.95,SSE,150,1.0,4.0,48,0.00,,,0.00,weatherlink.com 1.10,2013-01-21 19:46:00,
2013-01-21 15:01:00,30.5,13.0,29.94,WSW,240,1.0,5.0,49,0.00,,,0.00,weatherlink.com 1.10,2013-01-21 20:01:00,
2013-01-21 15:16:00,30.4,14.0,29.93,West,281,0.0,1.0,50,0.00,,,0.00,weatherlink.com 1.10,2013-01-21 20:16:00,
2013-01-21 15:31:00,30.3,14.0,29.92,West,280,3.0,4.0,50,0.00,,,0.00,weatherlink.com 1.10,2013-01-21 20:31:00,
2013-01-21 15:46:00,30.0,13.0,29.91,SE,146,0.0,4.0,50,0.00,,,0.00,weatherlink.com 1.10,2013-01-21 20:46:00,
2013-01-21 16:01:00,29.9,15.0,29.91,NNW,329,0.0,5.0,53,0.00,,,0.00,weatherlink.com 1.10,2013-01-21 21:01:00,
2013-01-21 16:16:00,30.1,15.0,29.90,NNW,339,0.0,1.0,53,0.00,,,0.00,weatherlink.com 1.10,2013-01-21 21:16:00,
2013-01-21 16:31:00,30.0,15.0,29.89,ESE,107,0.0,1.0,53,0.00,,,0.00,weatherlink.com 1.10,2013-01-21 21:31:00,
2013-01-21 16:46:00,29.8,14.0,29.90,SE,136,0.0,1.0,52,0.00,,,0.00,weatherlink.com 1.10,2013-01-21 21:46:00,
2013-01-21 17:02:00,29.8,14.0,29.90,West,274,0.0,1.0,53,0.00,,,0.00,weatherlink.com 1.10,2013-01-21 22:02:00,
2013-01-21 17:17:00,30.0,15.0,29.90,West,277,0.0,1.0,53,0.00,,,0.00,weatherlink.com 1.10,2013-01-21 22:17:00,
2013-01-21 17:32:00,29.8,14.0,29.90,WSW,257,0.0,1.0,53,0.00,,,0.00,weatherlink.com 1.10,2013-01-21 22:32:00,
2013-01-21 17:47:00,29.8,14.0,29.90,NW,305,0.0,1.0,53,0.00,,,0.00,weatherlink.com 1.10,2013-01-21 22:47:00,
2013-01-21 18:02:00,29.9,15.0,29.91,NNW,335,0.0,1.0,54,0.00,,,0.00,weatherlink.com 1.10,2013-01-21 23:02:00,
2013-01-21 18:17:00,29.8,15.0,29.90,NNW,335,0.0,1.0,54,0.00,,,0.00,weatherlink.com 1.10,2013-01-21 23:17:00,
2013-01-21 18:32:00,29.6,15.0,29.89,NNW,336,0.0,0.0,55,0.00,,,0.00,weatherlink.com 1.10,2013-01-21 23:32:00,
2013-01-21 18:47:00,29.8,15.0,29.89,North,359,0.0,1.0,55,0.00,,,0.00,weatherlink.com 1.10,2013-01-21 23:47:00,
2013-01-21 19:02:00,29.7,15.0,29.89,NNW,338,0.0,1.0,54,0.00,,,0.00,weatherlink.com 1.10,2013-01-22 00:02:00,
2013-01-21 19:17:00,29.5,15.0,29.88,West,262,0.0,1.0,54,0.00,,,0.00,weatherlink.com 1.10,2013-01-22 00:17:00,
2013-01-21 19:32:00,29.3,15.0,29.89,WNW,283,0.0,1.0,55,0.00,,,0.00,weatherlink.com 1.10,2013-01-22 00:32:00,
2013-01-21 19:47:00,29.0,16.0,29.89,NNE,20,0.0,5.0,58,0.00,,,0.00,weatherlink.com 1.10,2013-01-22 00:47:00,
2013-01-21 20:02:00,28.7,17.0,29.89,North,356,3.0,5.0,62,0.00,,,0.00,weatherlink.com 1.10,2013-01-22 01:02:00,
2013-01-21 20:17:00,28.5,17.0,29.89,North,357,2.0,3.0,63,0.00,,,0.00,weatherlink.com 1.10,2013-01-22 01:17:00,
2013-01-21 20:32:00,28.4,18.0,29.88,WNW,290,1.0,3.0,64,0.00,,,0.00,weatherlink.com 1.10,2013-01-22 01:32:00,
2013-01-21 20:47:00,28.3,17.0,29.89,ESE,103,0.0,3.0,64,0.00,,,0.00,weatherlink.com 1.10,2013-01-22 01:47:00,
2013-01-21 21:02:00,28.2,18.0,29.88,West,269,0.0,2.0,65,0.00,,,0.00,weatherlink.com 1.10,2013-01-22 02:02:00,
2013-01-21 21:17:00,28.1,18.0,29.86,ENE,60,2.0,3.0,65,0.00,,,0.00,weatherlink.com 1.10,2013-01-22 02:17:00,
2013-01-21 21:32:00,28.0,18.0,29.86,WNW,301,0.0,1.0,65,0.00,,,0.00,weatherlink.com 1.10,2013-01-22 02:32:00,
2013-01-21 21:47:00,28.0,18.0,29.88,SW,218,5.0,5.0,66,0.00,,,0.00,weatherlink.com 1.10,2013-01-22 02:47:00,
2013-01-21 22:02:00,28.1,18.0,29.86,West,281,2.0,5.0,66,0.00,,,0.00,weatherlink.com 1.10,2013-01-22 03:02:00,
2013-01-21 22:17:00,27.9,18.0,29.86,NW,307,2.0,3.0,66,0.00,,,0.00,weatherlink.com 1.10,2013-01-22 03:17:00,
2013-01-21 22:33:00,27.3,18.0,29.86,WSW,242,0.0,5.0,68,0.00,,,0.00,weatherlink.com 1.10,2013-01-22 03:33:00,
2013-01-21 22:47:00,26.9,18.0,29.86,WNW,285,1.0,6.0,69,0.00,,,0.00,weatherlink.com 1.10,2013-01-22 03:47:00,
2013-01-21 23:02:00,26.5,17.0,29.85,WSW,252,1.0,4.0,68,0.00,,,0.00,weatherlink.com 1.10,2013-01-22 04:02:00,
2013-01-21 23:17:00,26.2,17.0,29.86,North,9,0.0,3.0,68,0.00,,,0.00,weatherlink.com 1.10,2013-01-22 04:17:00,
2013-01-21 23:32:00,25.9,16.0,29.86,North,351,0.0,3.0,67,0.00,,,0.00,weatherlink.com 1.10,2013-01-22 04:32:00,
2013-01-21 23:47:00,25.7,14.0,29.85,WSW,252,6.0,7.0,62,0.00,,,0.00,weatherlink.com 1.10,2013-01-22 04:47:00,